Terminal Aerodrome Forecast
Issued by NWS State College, PA

Home | Current Version | Previous Version | Text Only | Print | Product List | Glossary On
Versions: 1 2 3 4 5 6 7 8 9 10 11 12 13 14 15 16 17 18 19 20 21 22 23 24 25 26 27 28 29 30 31 32 33 34 35 36 37 38 39 40 41 42 43 44 45 46 47 48 49 50
133
FTUS41 KCTP 301445 AAA
TAFMDT
TAF AMD
KMDT 301445Z 3015/3112 15004KT 6SM HZ VCSH SCT100 BKN150 OVC200
     FM301900 13005KT 5SM -SHRA BR VCTS OVC050CB
     FM310800 14004KT 3SM BR OVC020=

USA.gov is the U.S. government's official web portal to all federal, state and local government web resources and services.